sensor_id;sensor_type;location;lat;lon;timestamp;pressure;altitude;pressure_sealevel;temperature;humidity
33554;BME280;19885;42.208;24.952;2023-05-12T00:00:46;100350.22;;;12.91;76.97
33554;BME280;19885;42.208;24.952;2023-05-12T00:03:12;100351.13;;;12.96;75.56
33554;BME280;19885;42.208;24.952;2023-05-12T00:05:38;100356.34;;;12.93;75.85
33554;BME280;19885;42.208;24.952;2023-05-12T00:08:03;100359.84;;;12.95;75.62
33554;BME280;19885;42.208;24.952;2023-05-12T00:10:29;100356.44;;;13.05;74.98
33554;BME280;19885;42.208;24.952;2023-05-12T00:12:55;100348.50;;;12.98;75.45
33554;BME280;19885;42.208;24.952;2023-05-12T00:15:20;100352.00;;;12.92;75.53
33554;BME280;19885;42.208;24.952;2023-05-12T00:17:45;100353.63;;;12.73;76.66
33554;BME280;19885;42.208;24.952;2023-05-12T00:20:11;100363.22;;;12.74;76.90
33554;BME280;19885;42.208;24.952;2023-05-12T00:22:37;100356.94;;;12.47;78.57
33554;BME280;19885;42.208;24.952;2023-05-12T00:25:03;100357.00;;;12.57;78.82
33554;BME280;19885;42.208;24.952;2023-05-12T00:27:28;100353.50;;;12.51;79.05
33554;BME280;19885;42.208;24.952;2023-05-12T00:29:56;100356.97;;;12.54;79.29
33554;BME280;19885;42.208;24.952;2023-05-12T00:32:21;100353.50;;;12.55;78.80
33554;BME280;19885;42.208;24.952;2023-05-12T00:34:46;100352.41;;;12.25;79.36
33554;BME280;19885;42.208;24.952;2023-05-12T00:37:13;100355.78;;;12.10;80.98
33554;BME280;19885;42.208;24.952;2023-05-12T00:39:38;100358.44;;;12.16;80.49
33554;BME280;19885;42.208;24.952;2023-05-12T00:42:03;100359.34;;;12.23;80.64
33554;BME280;19885;42.208;24.952;2023-05-12T00:44:29;100358.56;;;12.31;80.36
33554;BME280;19885;42.208;24.952;2023-05-12T00:46:54;100365.47;;;12.23;80.54
33554;BME280;19885;42.208;24.952;2023-05-12T00:49:20;100363.66;;;12.17;80.98
33554;BME280;19885;42.208;24.952;2023-05-12T00:51:45;100365.50;;;12.29;80.56
33554;BME280;19885;42.208;24.952;2023-05-12T00:54:10;100356.78;;;12.27;80.64
33554;BME280;19885;42.208;24.952;2023-05-12T00:56:36;100367.31;;;12.36;80.22
33554;BME280;19885;42.208;24.952;2023-05-12T00:59:06;100365.56;;;12.37;80.28
33554;BME280;19885;42.208;24.952;2023-05-12T01:01:32;100374.22;;;12.31;80.18
33554;BME280;19885;42.208;24.952;2023-05-12T01:03:57;100368.09;;;12.23;81.19
33554;BME280;19885;42.208;24.952;2023-05-12T01:09:00;100370.78;;;12.32;80.50
33554;BME280;19885;42.208;24.952;2023-05-12T01:11:26;100364.69;;;12.35;80.81
33554;BME280;19885;42.208;24.952;2023-05-12T01:13:51;100375.19;;;12.39;80.73
33554;BME280;19885;42.208;24.952;2023-05-12T01:16:17;100375.25;;;12.47;80.57
33554;BME280;19885;42.208;24.952;2023-05-12T01:18:44;100372.56;;;12.41;80.75
33554;BME280;19885;42.208;24.952;2023-05-12T01:21:14;100370.81;;;12.37;81.38
33554;BME280;19885;42.208;24.952;2023-05-12T01:23:41;100371.66;;;12.34;81.34
33554;BME280;19885;42.208;24.952;2023-05-12T01:26:08;100369.09;;;12.40;81.50
33554;BME280;19885;42.208;24.952;2023-05-12T01:28:34;100370.84;;;12.43;81.67
33554;BME280;19885;42.208;24.952;2023-05-12T01:31:00;100371.63;;;12.31;81.85
33554;BME280;19885;42.208;24.952;2023-05-12T01:33:25;100367.31;;;12.36;82.55
33554;BME280;19885;42.208;24.952;2023-05-12T01:35:50;100366.47;;;12.37;82.98
33554;BME280;19885;42.208;24.952;2023-05-12T01:38:16;100377.78;;;12.39;82.21
33554;BME280;19885;42.208;24.952;2023-05-12T01:40:41;100368.22;;;12.43;82.12
33554;BME280;19885;42.208;24.952;2023-05-12T01:43:06;100368.28;;;12.52;82.40
33554;BME280;19885;42.208;24.952;2023-05-12T01:45:31;100372.66;;;12.54;81.34
33554;BME280;19885;42.208;24.952;2023-05-12T01:47:57;100372.66;;;12.54;81.58
33554;BME280;19885;42.208;24.952;2023-05-12T01:50:22;100379.69;;;12.61;81.58
33554;BME280;19885;42.208;24.952;2023-05-12T01:52:48;100368.38;;;12.62;82.42
33554;BME280;19885;42.208;24.952;2023-05-12T01:55:13;100374.53;;;12.70;82.08
33554;BME280;19885;42.208;24.952;2023-05-12T01:57:38;100372.78;;;12.72;81.48
33554;BME280;19885;42.208;24.952;2023-05-12T02:00:04;100375.44;;;12.75;81.96
33554;BME280;19885;42.208;24.952;2023-05-12T02:02:29;100375.38;;;12.66;81.63
33554;BME280;19885;42.208;24.952;2023-05-12T02:04:55;100375.34;;;12.63;81.52
33554;BME280;19885;42.208;24.952;2023-05-12T02:07:21;100368.34;;;12.59;81.52
33554;BME280;19885;42.208;24.952;2023-05-12T02:09:46;100369.22;;;12.58;82.03
33554;BME280;19885;42.208;24.952;2023-05-12T02:12:12;100362.25;;;12.63;81.68
33554;BME280;19885;42.208;24.952;2023-05-12T02:14:37;100369.25;;;12.64;81.41
33554;BME280;19885;42.208;24.952;2023-05-12T02:17:02;100364.00;;;12.58;82.19
33554;BME280;19885;42.208;24.952;2023-05-12T02:19:28;100360.53;;;12.62;82.23
33554;BME280;19885;42.208;24.952;2023-05-12T02:21:53;100368.41;;;12.68;82.41
33554;BME280;19885;42.208;24.952;2023-05-12T02:24:19;100361.38;;;12.61;82.22
33554;BME280;19885;42.208;24.952;2023-05-12T02:26:45;100362.25;;;12.63;81.91
33554;BME280;19885;42.208;24.952;2023-05-12T02:29:10;100355.31;;;12.65;81.98
33554;BME280;19885;42.208;24.952;2023-05-12T02:31:36;100358.78;;;12.58;82.19
33554;BME280;19885;42.208;24.952;2023-05-12T02:34:01;100365.75;;;12.62;83.10
33554;BME280;19885;42.208;24.952;2023-05-12T02:36:27;100367.44;;;12.51;83.01
33554;BME280;19885;42.208;24.952;2023-05-12T02:38:53;100367.50;;;12.60;82.88
33554;BME280;19885;42.208;24.952;2023-05-12T02:41:18;100361.41;;;12.64;82.61
33554;BME280;19885;42.208;24.952;2023-05-12T02:43:43;100356.16;;;12.61;80.90
33554;BME280;19885;42.208;24.952;2023-05-12T02:46:09;100352.59;;;12.50;81.81
33554;BME280;19885;42.208;24.952;2023-05-12T02:48:34;100352.59;;;12.50;81.58
33554;BME280;19885;42.208;24.952;2023-05-12T02:50:59;100359.63;;;12.56;80.49
33554;BME280;19885;42.208;24.952;2023-05-12T02:53:25;100353.50;;;12.55;79.44
33554;BME280;19885;42.208;24.952;2023-05-12T02:55:51;100366.63;;;12.58;78.90
33554;BME280;19885;42.208;24.952;2023-05-12T02:58:16;100369.22;;;12.58;79.25
33554;BME280;19885;42.208;24.952;2023-05-12T03:00:42;100367.47;;;12.57;79.98
33554;BME280;19885;42.208;24.952;2023-05-12T03:03:07;100364.84;;;12.59;79.66
33554;BME280;19885;42.208;24.952;2023-05-12T03:05:32;100370.97;;;12.58;79.72
33554;BME280;19885;42.208;24.952;2023-05-12T03:07:58;100366.59;;;12.57;79.65
33554;BME280;19885;42.208;24.952;2023-05-12T03:10:23;100363.91;;;12.46;80.27
33554;BME280;19885;42.208;24.952;2023-05-12T03:12:48;100367.38;;;12.42;81.27
33554;BME280;19885;42.208;24.952;2023-05-12T03:15:15;100371.72;;;12.43;81.72
33554;BME280;19885;42.208;24.952;2023-05-12T03:17:41;100369.06;;;12.37;82.25
33554;BME280;19885;42.208;24.952;2023-05-12T03:20:06;100374.34;;;12.40;82.51
33554;BME280;19885;42.208;24.952;2023-05-12T03:22:32;100377.81;;;12.42;83.10
33554;BME280;19885;42.208;24.952;2023-05-12T03:24:57;100387.44;;;12.45;83.10
33554;BME280;19885;42.208;24.952;2023-05-12T03:27:22;100390.09;;;12.49;82.11
33554;BME280;19885;42.208;24.952;2023-05-12T03:29:48;100382.25;;;12.52;82.49
33554;BME280;19885;42.208;24.952;2023-05-12T03:32:13;100397.00;;;12.47;82.77
33554;BME280;19885;42.208;24.952;2023-05-12T03:34:38;100395.28;;;12.46;83.06
33554;BME280;19885;42.208;24.952;2023-05-12T03:37:04;100397.06;;;12.53;83.34
33554;BME280;19885;42.208;24.952;2023-05-12T03:39:30;100396.22;;;12.57;83.17
33554;BME280;19885;42.208;24.952;2023-05-12T03:41:55;100391.88;;;12.59;82.78
33554;BME280;19885;42.208;24.952;2023-05-12T03:44:21;100406.72;;;12.62;83.13
33554;BME280;19885;42.208;24.952;2023-05-12T03:46:49;100406.72;;;12.62;83.34
33554;BME280;19885;42.208;24.952;2023-05-12T03:49:14;100411.19;;;12.76;84.79
33554;BME280;19885;42.208;24.952;2023-05-12T03:51:40;100412.06;;;12.81;84.48
33554;BME280;19885;42.208;24.952;2023-05-12T03:54:05;100420.78;;;12.77;84.79
33554;BME280;19885;42.208;24.952;2023-05-12T03:56:31;100418.16;;;12.79;85.39
33554;BME280;19885;42.208;24.952;2023-05-12T03:58:56;100416.28;;;12.61;86.00
33554;BME280;19885;42.208;24.952;2023-05-12T04:01:21;100420.72;;;12.67;86.11
33554;BME280;19885;42.208;24.952;2023-05-12T04:03:47;100419.81;;;12.66;86.25
33554;BME280;19885;42.208;24.952;2023-05-12T04:06:12;100421.63;;;12.75;85.86
33554;BME280;19885;42.208;24.952;2023-05-12T04:08:38;100423.34;;;12.73;85.72
33554;BME280;19885;42.208;24.952;2023-05-12T04:11:03;100428.66;;;12.82;86.43
33554;BME280;19885;42.208;24.952;2023-05-12T04:13:29;100433.09;;;12.92;84.92
33554;BME280;19885;42.208;24.952;2023-05-12T04:15:58;100428.72;;;12.89;84.84
33554;BME280;19885;42.208;24.952;2023-05-12T04:18:24;100435.66;;;12.90;84.53
33554;BME280;19885;42.208;24.952;2023-05-12T04:20:52;100428.72;;;12.93;84.42
33554;BME280;19885;42.208;24.952;2023-05-12T04:23:18;100435.75;;;13.03;84.66
33554;BME280;19885;42.208;24.952;2023-05-12T04:25:43;100438.44;;;13.06;83.72
33554;BME280;19885;42.208;24.952;2023-05-12T04:28:09;100430.59;;;13.06;83.58
33554;BME280;19885;42.208;24.952;2023-05-12T04:30:34;100429.72;;;13.07;83.75
33554;BME280;19885;42.208;24.952;2023-05-12T04:33:00;100429.72;;;13.11;84.06
33554;BME280;19885;42.208;24.952;2023-05-12T04:35:25;100430.59;;;13.07;84.25
33554;BME280;19885;42.208;24.952;2023-05-12T04:37:51;100428.94;;;13.21;84.42
33554;BME280;19885;42.208;24.952;2023-05-12T04:40:16;100423.72;;;13.26;83.05
33554;BME280;19885;42.208;24.952;2023-05-12T04:42:42;100421.91;;;13.16;83.26
33554;BME280;19885;42.208;24.952;2023-05-12T04:45:07;100422.81;;;13.19;83.77
33554;BME280;19885;42.208;24.952;2023-05-12T04:47:33;100421.09;;;13.29;81.75
33554;BME280;19885;42.208;24.952;2023-05-12T04:49:59;100422.00;;;13.37;80.27
33554;BME280;19885;42.208;24.952;2023-05-12T04:52:25;100416.81;;;13.46;77.72
33554;BME280;19885;42.208;24.952;2023-05-12T04:54:50;100417.72;;;13.52;77.58
33554;BME280;19885;42.208;24.952;2023-05-12T04:57:16;100415.09;;;13.54;78.71
33554;BME280;19885;42.208;24.952;2023-05-12T04:59:42;100413.34;;;13.53;78.80
33554;BME280;19885;42.208;24.952;2023-05-12T05:02:07;100414.25;;;13.53;79.34
33554;BME280;19885;42.208;24.952;2023-05-12T05:04:33;100415.94;;;13.44;77.69
33554;BME280;19885;42.208;24.952;2023-05-12T05:06:58;100416.81;;;13.40;79.17
33554;BME280;19885;42.208;24.952;2023-05-12T05:09:24;100406.41;;;13.58;78.15
33554;BME280;19885;42.208;24.952;2023-05-12T05:11:49;100415.97;;;13.59;78.11
33554;BME280;19885;42.208;24.952;2023-05-12T05:14:15;100413.28;;;13.41;77.12
33554;BME280;19885;42.208;24.952;2023-05-12T05:16:40;100423.00;;;13.65;79.04
33554;BME280;19885;42.208;24.952;2023-05-12T05:19:06;100422.13;;;13.67;78.80
33554;BME280;19885;42.208;24.952;2023-05-12T05:21:31;100423.94;;;13.83;76.66
33554;BME280;19885;42.208;24.952;2023-05-12T05:23:56;100420.44;;;13.87;76.50
33554;BME280;19885;42.208;24.952;2023-05-12T05:26:22;100423.06;;;13.95;77.31
33554;BME280;19885;42.208;24.952;2023-05-12T05:28:47;100417.84;;;14.05;76.04
33554;BME280;19885;42.208;24.952;2023-05-12T05:31:16;100425.72;;;14.11;75.09
33554;BME280;19885;42.208;24.952;2023-05-12T05:33:41;100423.97;;;14.07;77.03
33554;BME280;19885;42.208;24.952;2023-05-12T05:36:07;100427.47;;;14.05;76.94
33554;BME280;19885;42.208;24.952;2023-05-12T05:38:32;100424.00;;;14.15;77.19
33554;BME280;19885;42.208;24.952;2023-05-12T05:40:57;100430.97;;;14.22;74.99
33554;BME280;19885;42.208;24.952;2023-05-12T05:43:23;100431.84;;;14.25;77.03
33554;BME280;19885;42.208;24.952;2023-05-12T05:45:48;100431.00;;;14.31;78.36
33554;BME280;19885;42.208;24.952;2023-05-12T05:48:14;100431.91;;;14.30;74.78
33554;BME280;19885;42.208;24.952;2023-05-12T05:50:39;100437.13;;;14.28;76.42
33554;BME280;19885;42.208;24.952;2023-05-12T05:53:05;100439.72;;;14.25;76.37
33554;BME280;19885;42.208;24.952;2023-05-12T05:55:30;100430.13;;;14.21;76.79
33554;BME280;19885;42.208;24.952;2023-05-12T05:57:56;100424.84;;;14.15;77.74
33554;BME280;19885;42.208;24.952;2023-05-12T06:00:21;100428.38;;;14.31;76.99
33554;BME280;19885;42.208;24.952;2023-05-12T06:02:46;100430.94;;;14.01;76.46
33554;BME280;19885;42.208;24.952;2023-05-12T06:05:11;100427.50;;;14.27;76.69
33554;BME280;19885;42.208;24.952;2023-05-12T06:07:37;100426.59;;;14.10;76.46
33554;BME280;19885;42.208;24.952;2023-05-12T06:10:02;100432.66;;;13.82;74.65
33554;BME280;19885;42.208;24.952;2023-05-12T06:12:29;100431.78;;;13.79;76.53
33554;BME280;19885;42.208;24.952;2023-05-12T06:14:54;100429.19;;;13.83;76.23
33554;BME280;19885;42.208;24.952;2023-05-12T06:17:19;100434.44;;;13.88;79.20
33554;BME280;19885;42.208;24.952;2023-05-12T06:19:45;100438.81;;;14.07;75.53
33554;BME280;19885;42.208;24.952;2023-05-12T06:22:13;100436.28;;;14.33;77.46
33554;BME280;19885;42.208;24.952;2023-05-12T06:24:39;100434.53;;;14.35;74.43
33554;BME280;19885;42.208;24.952;2023-05-12T06:27:04;100446.72;;;14.23;74.22
33554;BME280;19885;42.208;24.952;2023-05-12T13:55:23;100272.78;;;20.50;44.33
33554;BME280;19885;42.208;24.952;2023-05-12T13:57:49;100282.00;;;20.68;41.21
33554;BME280;19885;42.208;24.952;2023-05-12T14:00:14;100287.28;;;20.01;41.77
33554;BME280;19885;42.208;24.952;2023-05-12T14:02:41;100287.66;;;19.49;42.87
33554;BME280;19885;42.208;24.952;2023-05-12T14:05:06;100291.63;;;19.27;42.02
33554;BME280;19885;42.208;24.952;2023-05-12T14:07:32;100286.50;;;19.60;43.62
33554;BME280;19885;42.208;24.952;2023-05-12T14:09:57;100290.22;;;19.53;40.33
33554;BME280;19885;42.208;24.952;2023-05-12T14:12:24;100281.72;;;19.76;41.31
33554;BME280;19885;42.208;24.952;2023-05-12T14:14:49;100281.66;;;19.41;39.69
33554;BME280;19885;42.208;24.952;2023-05-12T14:17:15;100282.59;;;19.38;41.30
33554;BME280;19885;42.208;24.952;2023-05-12T14:19:41;100286.75;;;19.50;42.50
33554;BME280;19885;42.208;24.952;2023-05-12T14:22:06;100289.72;;;19.33;41.70
33554;BME280;19885;42.208;24.952;2023-05-12T14:24:31;100287.00;;;19.39;43.09
33554;BME280;19885;42.208;24.952;2023-05-12T14:26:57;100294.41;;;19.62;41.95
33554;BME280;19885;42.208;24.952;2023-05-12T14:29:22;100291.03;;;19.55;40.86
33554;BME280;19885;42.208;24.952;2023-05-12T14:31:47;100290.41;;;19.44;39.47
33554;BME280;19885;42.208;24.952;2023-05-12T14:34:12;100283.81;;;19.22;41.01
33554;BME280;19885;42.208;24.952;2023-05-12T14:36:38;100288.44;;;19.11;40.30
33554;BME280;19885;42.208;24.952;2023-05-12T14:39:03;100289.81;;;19.30;40.04
33554;BME280;19885;42.208;24.952;2023-05-12T14:41:29;100292.28;;;19.39;41.55
33554;BME280;19885;42.208;24.952;2023-05-12T14:43:54;100283.00;;;19.58;40.76
33554;BME280;19885;42.208;24.952;2023-05-12T14:46:20;100284.69;;;19.22;40.06
33554;BME280;19885;42.208;24.952;2023-05-12T14:48:45;100284.56;;;19.27;42.72
33554;BME280;19885;42.208;24.952;2023-05-12T14:51:11;100281.66;;;19.41;40.55
33554;BME280;19885;42.208;24.952;2023-05-12T14:53:36;100283.53;;;19.34;39.60
33554;BME280;19885;42.208;24.952;2023-05-12T14:56:02;100279.06;;;19.38;39.81
33554;BME280;19885;42.208;24.952;2023-05-12T14:58:27;100279.69;;;19.09;40.42
33554;BME280;19885;42.208;24.952;2023-05-12T15:00:52;100286.50;;;19.20;43.32
33554;BME280;19885;42.208;24.952;2023-05-12T15:03:18;100277.09;;;19.06;41.22
33554;BME280;19885;42.208;24.952;2023-05-12T15:05:45;100281.72;;;18.96;41.63
33554;BME280;19885;42.208;24.952;2023-05-12T15:08:12;100276.66;;;18.86;40.54
33554;BME280;19885;42.208;24.952;2023-05-12T15:10:38;100279.97;;;18.95;41.73
33554;BME280;19885;42.208;24.952;2023-05-12T15:13:03;100273.72;;;19.01;41.57
33554;BME280;19885;42.208;24.952;2023-05-12T15:15:28;100278.16;;;18.99;42.31
33554;BME280;19885;42.208;24.952;2023-05-12T15:17:54;100276.50;;;18.93;41.35
33554;BME280;19885;42.208;24.952;2023-05-12T15:20:19;100272.94;;;18.96;40.46
33554;BME280;19885;42.208;24.952;2023-05-12T15:22:46;100272.28;;;18.83;41.46
33554;BME280;19885;42.208;24.952;2023-05-12T15:25:11;100276.06;;;18.72;42.29
33554;BME280;19885;42.208;24.952;2023-05-12T15:27:36;100273.72;;;18.57;42.59
33554;BME280;19885;42.208;24.952;2023-05-12T15:30:02;100265.38;;;18.30;42.95
33554;BME280;19885;42.208;24.952;2023-05-12T15:32:27;100269.88;;;18.25;43.82
33554;BME280;19885;42.208;24.952;2023-05-12T15:34:54;100271.75;;;18.19;43.21
33554;BME280;19885;42.208;24.952;2023-05-12T15:37:19;100273.63;;;18.12;43.57
33554;BME280;19885;42.208;24.952;2023-05-12T15:39:45;100272.63;;;18.18;44.72
33554;BME280;19885;42.208;24.952;2023-05-12T15:42:10;100277.44;;;17.95;42.99
33554;BME280;19885;42.208;24.952;2023-05-12T15:44:35;100266.03;;;17.93;44.37
33554;BME280;19885;42.208;24.952;2023-05-12T15:47:01;100270.66;;;17.80;44.58
33554;BME280;19885;42.208;24.952;2023-05-12T15:49:26;100261.94;;;17.75;44.47
33554;BME280;19885;42.208;24.952;2023-05-12T15:51:51;100256.84;;;17.64;44.10
33554;BME280;19885;42.208;24.952;2023-05-12T15:54:17;100259.47;;;17.63;44.24
33554;BME280;19885;42.208;24.952;2023-05-12T15:56:42;100256.75;;;17.70;45.43
33554;BME280;19885;42.208;24.952;2023-05-12T15:59:07;100255.94;;;17.65;45.73
33554;BME280;19885;42.208;24.952;2023-05-12T16:01:33;100250.81;;;17.56;44.76
33554;BME280;19885;42.208;24.952;2023-05-12T16:03:59;100254.50;;;17.43;43.93
33554;BME280;19885;42.208;24.952;2023-05-12T16:06:24;100256.38;;;17.35;44.56
33554;BME280;19885;42.208;24.952;2023-05-12T16:08:50;100254.66;;;17.31;44.66
33554;BME280;19885;42.208;24.952;2023-05-12T16:11:15;100263.50;;;17.27;46.36
33554;BME280;19885;42.208;24.952;2023-05-12T16:13:41;100252.09;;;17.27;46.76
33554;BME280;19885;42.208;24.952;2023-05-12T16:16:06;100248.72;;;17.19;46.29
33554;BME280;19885;42.208;24.952;2023-05-12T16:18:32;100261.00;;;17.18;47.27
33554;BME280;19885;42.208;24.952;2023-05-12T16:20:57;100259.28;;;17.16;47.89
33554;BME280;19885;42.208;24.952;2023-05-12T16:23:23;100267.25;;;17.13;47.10
33554;BME280;19885;42.208;24.952;2023-05-12T16:25:48;100269.13;;;17.01;47.21
33554;BME280;19885;42.208;24.952;2023-05-12T16:28:14;100265.56;;;17.04;47.09
33554;BME280;19885;42.208;24.952;2023-05-12T16:30:39;100272.69;;;16.97;46.22
33554;BME280;19885;42.208;24.952;2023-05-12T16:33:05;100277.97;;;16.97;46.79
33554;BME280;19885;42.208;24.952;2023-05-12T16:35:31;100285.81;;;17.00;46.34
33554;BME280;19885;42.208;24.952;2023-05-12T16:37:56;100286.81;;;16.92;46.56
33554;BME280;19885;42.208;24.952;2023-05-12T16:40:22;100301.00;;;16.80;46.49
33554;BME280;19885;42.208;24.952;2023-05-12T16:42:47;100294.84;;;16.80;46.06
33554;BME280;19885;42.208;24.952;2023-05-12T16:45:12;100294.88;;;16.78;46.42
33554;BME280;19885;42.208;24.952;2023-05-12T16:47:37;100297.63;;;16.68;47.51
33554;BME280;19885;42.208;24.952;2023-05-12T16:50:03;100293.16;;;16.74;47.66
33554;BME280;19885;42.208;24.952;2023-05-12T16:52:28;100287.88;;;16.74;46.99
33554;BME280;19885;42.208;24.952;2023-05-12T16:54:54;100297.53;;;16.75;48.01
33554;BME280;19885;42.208;24.952;2023-05-12T16:57:20;100295.84;;;16.71;48.05
33554;BME280;19885;42.208;24.952;2023-05-12T16:59:45;100301.97;;;16.70;48.23
33554;BME280;19885;42.208;24.952;2023-05-12T17:02:12;100307.22;;;16.73;48.54
33554;BME280;19885;42.208;24.952;2023-05-12T17:04:37;100307.25;;;16.70;48.61
33554;BME280;19885;42.208;24.952;2023-05-12T17:07:02;100307.31;;;16.64;48.70
33554;BME280;19885;42.208;24.952;2023-05-12T17:09:28;100311.75;;;16.59;48.90
33554;BME280;19885;42.208;24.952;2023-05-12T17:11:53;100312.69;;;16.55;49.17
33554;BME280;19885;42.208;24.952;2023-05-12T17:14:18;100316.19;;;16.54;49.33
33554;BME280;19885;42.208;24.952;2023-05-12T17:16:44;100312.78;;;16.41;49.49
33554;BME280;19885;42.208;24.952;2023-05-12T17:19:09;100327.69;;;16.41;49.50
33554;BME280;19885;42.208;24.952;2023-05-12T17:21:35;100325.94;;;16.40;49.40
33554;BME280;19885;42.208;24.952;2023-05-12T17:24:00;100327.00;;;16.21;49.68
33554;BME280;19885;42.208;24.952;2023-05-12T17:26:25;100321.81;;;16.15;50.62
33554;BME280;19885;42.208;24.952;2023-05-12T17:28:52;100316.63;;;16.06;50.87
33554;BME280;19885;42.208;24.952;2023-05-12T17:31:17;100320.13;;;16.05;50.92
33554;BME280;19885;42.208;24.952;2023-05-12T17:33:42;100326.28;;;15.99;50.55
33554;BME280;19885;42.208;24.952;2023-05-12T17:36:07;100328.94;;;15.98;51.28
33554;BME280;19885;42.208;24.952;2023-05-12T17:38:33;100333.41;;;15.87;51.42
33554;BME280;19885;42.208;24.952;2023-05-12T17:40:58;100335.19;;;15.85;50.90
33554;BME280;19885;42.208;24.952;2023-05-12T17:43:23;100332.56;;;15.85;50.88
33554;BME280;19885;42.208;24.952;2023-05-12T17:45:48;100338.59;;;15.96;50.93
33554;BME280;19885;42.208;24.952;2023-05-12T17:48:14;100342.91;;;16.06;50.24
33554;BME280;19885;42.208;24.952;2023-05-12T17:50:39;100344.56;;;16.19;50.54
33554;BME280;19885;42.208;24.952;2023-05-12T17:53:05;100351.69;;;16.03;51.13
33554;BME280;19885;42.208;24.952;2023-05-12T17:55:31;100346.41;;;16.08;50.57
33554;BME280;19885;42.208;24.952;2023-05-12T17:57:56;100344.66;;;16.04;50.77
33554;BME280;19885;42.208;24.952;2023-05-12T18:00:21;100353.38;;;16.12;50.47
33554;BME280;19885;42.208;24.952;2023-05-12T18:02:47;100360.34;;;16.16;50.28
33554;BME280;19885;42.208;24.952;2023-05-12T18:05:12;100369.00;;;16.30;51.66
33554;BME280;19885;42.208;24.952;2023-05-12T18:07:38;100373.25;;;16.46;51.47
33554;BME280;19885;42.208;24.952;2023-05-12T18:10:07;100374.09;;;16.50;50.41
33554;BME280;19885;42.208;24.952;2023-05-12T18:12:33;100375.75;;;16.61;50.74
33554;BME280;19885;42.208;24.952;2023-05-12T18:14:58;100373.22;;;16.54;50.16
33554;BME280;19885;42.208;24.952;2023-05-12T18:17:23;100381.09;;;16.58;51.54
33554;BME280;19885;42.208;24.952;2023-05-12T18:19:49;100383.78;;;16.44;52.12
33554;BME280;19885;42.208;24.952;2023-05-12T18:22:15;100387.31;;;16.40;51.12
33554;BME280;19885;42.208;24.952;2023-05-12T18:24:42;100389.13;;;16.34;50.66
33554;BME280;19885;42.208;24.952;2023-05-12T18:27:08;100390.06;;;16.27;50.70
33554;BME280;19885;42.208;24.952;2023-05-12T18:29:33;100395.44;;;16.12;51.39
33554;BME280;19885;42.208;24.952;2023-05-12T18:31:58;100399.19;;;15.78;51.14
33554;BME280;19885;42.208;24.952;2023-05-12T18:34:24;100405.25;;;15.89;51.57
33554;BME280;19885;42.208;24.952;2023-05-12T18:36:49;100407.00;;;15.88;52.33
33554;BME280;19885;42.208;24.952;2023-05-12T18:39:14;100407.03;;;15.85;50.90
33554;BME280;19885;42.208;24.952;2023-05-12T18:41:40;100412.31;;;15.79;51.47
33554;BME280;19885;42.208;24.952;2023-05-12T18:44:05;100417.63;;;15.65;51.05
33554;BME280;19885;42.208;24.952;2023-05-12T18:46:32;100421.22;;;15.43;51.64
33554;BME280;19885;42.208;24.952;2023-05-12T18:48:58;100425.63;;;15.44;51.21
33554;BME280;19885;42.208;24.952;2023-05-12T18:51:23;100426.53;;;15.25;51.24
33554;BME280;19885;42.208;24.952;2023-05-12T18:53:48;100432.69;;;15.17;51.11
33554;BME280;19885;42.208;24.952;2023-05-12T18:56:13;100426.53;;;15.28;51.09
33554;BME280;19885;42.208;24.952;2023-05-12T18:58:39;100433.59;;;15.02;51.46
33554;BME280;19885;42.208;24.952;2023-05-12T19:01:04;100423.13;;;14.90;52.07
33554;BME280;19885;42.208;24.952;2023-05-12T19:03:30;100427.53;;;14.76;52.24
33554;BME280;19885;42.208;24.952;2023-05-12T19:05:56;100433.66;;;14.73;52.76
33554;BME280;19885;42.208;24.952;2023-05-12T19:08:22;100438.88;;;14.78;52.62
33554;BME280;19885;42.208;24.952;2023-05-12T19:10:47;100436.28;;;14.58;52.81
33554;BME280;19885;42.208;24.952;2023-05-12T19:13:12;100444.16;;;14.46;52.81
33554;BME280;19885;42.208;24.952;2023-05-12T19:15:38;100441.53;;;14.45;53.15
33554;BME280;19885;42.208;24.952;2023-05-12T19:18:03;100446.75;;;14.36;53.12
33554;BME280;19885;42.208;24.952;2023-05-12T19:20:29;100452.84;;;14.24;53.88
33554;BME280;19885;42.208;24.952;2023-05-12T19:22:54;100451.06;;;14.23;54.20
33554;BME280;19885;42.208;24.952;2023-05-12T19:25:20;100454.59;;;14.28;54.20
33554;BME280;19885;42.208;24.952;2023-05-12T19:27:45;100451.13;;;14.32;54.01
33554;BME280;19885;42.208;24.952;2023-05-12T19:30:11;100451.97;;;14.36;54.70
33554;BME280;19885;42.208;24.952;2023-05-12T19:32:36;100452.03;;;14.58;55.33
33554;BME280;19885;42.208;24.952;2023-05-12T19:35:03;100451.16;;;14.53;55.60
33554;BME280;19885;42.208;24.952;2023-05-12T19:37:29;100454.59;;;14.36;54.59
33554;BME280;19885;42.208;24.952;2023-05-12T19:39:55;100455.50;;;14.41;55.31
33554;BME280;19885;42.208;24.952;2023-05-12T19:42:20;100454.63;;;14.34;55.99
33554;BME280;19885;42.208;24.952;2023-05-12T19:44:45;100458.97;;;14.43;56.28
33554;BME280;19885;42.208;24.952;2023-05-12T19:47:11;100454.63;;;14.43;57.07
33554;BME280;19885;42.208;24.952;2023-05-12T19:49:36;100453.72;;;14.34;57.28
33554;BME280;19885;42.208;24.952;2023-05-12T19:52:02;100450.28;;;14.38;56.31
33554;BME280;19885;42.208;24.952;2023-05-12T19:54:27;100461.53;;;14.11;56.54
33554;BME280;19885;42.208;24.952;2023-05-12T19:56:52;100452.69;;;13.61;57.20
33554;BME280;19885;42.208;24.952;2023-05-12T19:59:18;100449.00;;;13.27;58.62